LPHR/HOR METAR and TAF weather

Enter ICAO airport designator
Station Type Date Time Source
LPHR METAR 2021/05/12 20:00 UTC NOAA

LPHR 122000Z 26008KT 9999 FEW012 18/16 Q1026


Station Type Date Time Source
LPHR Decoded METAR 2021/05/12 20:00 UTC NOAA

Horta / Castelo Branco Acores , Portugal (LPHR) 38-31N 028-43W 41M
May 12, 2021 - 04:00 PM EDT / 2021.05.12 2000 UTC
Wind: from the W (260 degrees) at 9 MPH (8 KT):0
Visibility: greater than 7 mile(s):0
Sky conditions: mostly clear
Temperature: 64 F (18 C)
Dew Point: 60 F (16 C)
Relative Humidity: 88%
Pressure (altimeter): 30.30 in. Hg (1026 hPa)
ob: LPHR 122000Z 26008KT 9999 FEW012 18/16 Q1026
cycle: 20

Station Type Date Time Source
LPHR TAF 2018/09/06 09:00 UTC NOAA

TAF LPHR 060800Z 0609/0618 12010KT 9999 SCT018 SCT040 PROB30
TEMPO 0609/0618 5000 SHRA BKN015 FEW018CB
BECMG 0610/0612 18010KT

Example: see airport list